Time;durP1;ratioP1;P1;durP2;ratioP2;P2;SDS_P1;SDS_P2;PMS_P1;PMS_P2;Temp;Humidity;BMP_temperature;BMP_pressure;BME280_temperature;BME280_humidity;BME280_pressure;Samples;Min_cycle;Max_cycle;Signal;HPM_P1;HPM_P2
2022/07/07 00:01:43;;;;;;;36.07;18.83;;;;;;;;;;4990363;28;20046;-63
2022/07/07 00:04:10;;;;;;;30.37;17.97;;;;;;;;;;4990862;28;20085;-63
2022/07/07 00:06:36;;;;;;;35.30;18.87;;;;;;;;;;4990308;28;20047;-63
2022/07/07 00:09:03;;;;;;;35.53;18.23;;;;;;;;;;4990815;28;20056;-63
2022/07/07 00:11:29;;;;;;;29.43;18.27;;;;;;;;;;4990392;28;20201;-64
2022/07/07 00:13:55;;;;;;;35.83;21.00;;;;;;;;;;4990751;28;20416;-64
2022/07/07 00:16:22;;;;;;;39.90;20.70;;;;;;;;;;4990740;28;20485;-64
2022/07/07 00:18:48;;;;;;;39.60;22.20;;;;;;;;;;4982566;28;20511;-64
2022/07/07 00:21:14;;;;;;;35.87;20.43;;;;;;;;;;4990514;28;20125;-64
2022/07/07 00:23:40;;;;;;;40.73;23.17;;;;;;;;;;4989947;28;20088;-63
2022/07/07 00:26:06;;;;;;;38.50;21.63;;;;;;;;;;4990507;28;20058;-63
2022/07/07 00:28:32;;;;;;;41.60;22.10;;;;;;;;;;4990316;28;20043;-63
2022/07/07 00:30:58;;;;;;;43.50;21.73;;;;;;;;;;4990295;28;20046;-63
2022/07/07 00:33:24;;;;;;;24.47;16.27;;;;;;;;;;4989921;28;20504;-64
2022/07/07 00:35:51;;;;;;;35.13;20.03;;;;;;;;;;4990279;28;20125;-64
2022/07/07 00:38:17;;;;;;;27.87;17.43;;;;;;;;;;4990474;28;20053;-63
2022/07/07 00:40:43;;;;;;;34.77;15.73;;;;;;;;;;4990092;28;20089;-63
2022/07/07 00:43:09;;;;;;;22.10;15.40;;;;;;;;;;4990194;28;20093;-64
2022/07/07 00:45:35;;;;;;;23.30;14.83;;;;;;;;;;4989513;28;20046;-63
2022/07/07 00:48:01;;;;;;;27.37;15.53;;;;;;;;;;4990267;28;20049;-64
2022/07/07 00:50:27;;;;;;;38.57;18.57;;;;;;;;;;4989453;28;20102;-63
2022/07/07 00:52:53;;;;;;;35.63;18.60;;;;;;;;;;4989875;28;20712;-63
2022/07/07 00:55:19;;;;;;;29.97;16.13;;;;;;;;;;4989466;28;20064;-63
2022/07/07 00:57:45;;;;;;;29.07;16.53;;;;;;;;;;4989862;28;20137;-63
2022/07/07 01:00:13;;;;;;;26.37;17.67;;;;;;;;;;4989577;28;20461;-64
2022/07/07 01:02:40;;;;;;;28.13;17.17;;;;;;;;;;4989740;28;20133;-64
2022/07/07 01:05:08;;;;;;;38.00;20.07;;;;;;;;;;4989640;28;20078;-65
2022/07/07 01:07:34;;;;;;;30.93;20.50;;;;;;;;;;4989607;28;20059;-64
2022/07/07 01:10:01;;;;;;;46.37;24.93;;;;;;;;;;4989999;28;20069;-65
2022/07/07 01:12:33;;;;;;;39.63;21.57;;;;;;;;;;4990039;28;20575;-64
2022/07/07 01:14:59;;;;;;;32.83;21.23;;;;;;;;;;4989555;28;20127;-65
2022/07/07 01:17:25;;;;;;;43.27;25.83;;;;;;;;;;4990307;28;20042;-64
2022/07/07 01:19:51;;;;;;;50.30;29.37;;;;;;;;;;4989585;28;20034;-64
2022/07/07 01:22:17;;;;;;;36.57;22.93;;;;;;;;;;4989590;28;20145;-64
2022/07/07 01:24:43;;;;;;;37.20;22.70;;;;;;;;;;4989138;28;20046;-64
2022/07/07 01:27:14;;;;;;;46.40;25.27;;;;;;;;;;4989383;28;20070;-64
2022/07/07 01:29:41;;;;;;;42.13;20.93;;;;;;;;;;4989525;28;20169;-65
2022/07/07 01:32:10;;;;;;;54.93;24.53;;;;;;;;;;4989474;28;20042;-66
2022/07/07 01:34:39;;;;;;;38.10;20.30;;;;;;;;;;4989157;28;20042;-66
2022/07/07 01:37:06;;;;;;;22.30;11.47;;;;;;;;;;4989052;28;20093;-65
2022/07/07 01:39:33;;;;;;;17.57;9.90;;;;;;;;;;4989157;28;20153;-65
2022/07/07 01:41:59;;;;;;;17.13;7.70;;;;;;;;;;4989362;28;20097;-64
2022/07/07 01:44:25;;;;;;;16.13;8.23;;;;;;;;;;4989143;28;20050;-65
2022/07/07 01:46:51;;;;;;;21.20;10.37;;;;;;;;;;4988985;28;20153;-65
2022/07/07 01:49:17;;;;;;;20.97;10.00;;;;;;;;;;4984575;28;20046;-65
2022/07/07 01:51:43;;;;;;;20.37;10.20;;;;;;;;;;4989287;28;20097;-65
2022/07/07 01:54:10;;;;;;;19.27;10.97;;;;;;;;;;4989361;28;20050;-65
2022/07/07 01:56:36;;;;;;;17.87;8.53;;;;;;;;;;4988608;28;20054;-65
2022/07/07 01:59:02;;;;;;;19.50;9.97;;;;;;;;;;4988939;28;20051;-65
2022/07/07 02:01:28;;;;;;;16.97;9.40;;;;;;;;;;4989052;28;20046;-65
2022/07/07 02:03:54;;;;;;;16.77;9.40;;;;;;;;;;4988832;28;20069;-65
2022/07/07 02:06:21;;;;;;;17.60;9.57;;;;;;;;;;4988495;28;20046;-65
2022/07/07 02:08:47;;;;;;;21.23;10.13;;;;;;;;;;4989043;28;20044;-65
2022/07/07 02:11:16;;;;;;;15.10;8.33;;;;;;;;;;4988537;28;20062;-65
2022/07/07 02:13:45;;;;;;;20.53;9.33;;;;;;;;;;4989267;28;20038;-64
2022/07/07 02:16:12;;;;;;;17.63;10.83;;;;;;;;;;4989427;28;20523;-65
2022/07/07 02:18:39;;;;;;;17.77;10.53;;;;;;;;;;4988641;28;20042;-65
2022/07/07 02:21:06;;;;;;;13.40;8.37;;;;;;;;;;4989157;28;20068;-64
2022/07/07 02:23:32;;;;;;;18.40;11.20;;;;;;;;;;4988742;28;20054;-65
2022/07/07 02:25:59;;;;;;;14.13;7.73;;;;;;;;;;4990022;28;20074;-66
2022/07/07 02:28:26;;;;;;;13.23;8.57;;;;;;;;;;4991943;28;20050;-65
2022/07/07 02:30:53;;;;;;;14.70;8.33;;;;;;;;;;4992695;28;20078;-65
2022/07/07 02:33:19;;;;;;;15.07;9.77;;;;;;;;;;4992204;28;20050;-65
2022/07/07 02:35:45;;;;;;;14.47;7.70;;;;;;;;;;4992111;28;20057;-65
2022/07/07 02:38:11;;;;;;;13.03;8.40;;;;;;;;;;4992844;28;20050;-65
2022/07/07 02:40:37;;;;;;;19.17;10.90;;;;;;;;;;4992512;28;20519;-65
2022/07/07 02:43:04;;;;;;;12.80;8.40;;;;;;;;;;4992085;28;20050;-65
2022/07/07 02:45:30;;;;;;;19.77;10.03;;;;;;;;;;4991874;28;20053;-65
2022/07/07 02:47:56;;;;;;;16.93;9.60;;;;;;;;;;4992391;28;20050;-65
2022/07/07 02:50:22;;;;;;;19.37;11.03;;;;;;;;;;4992445;28;20565;-66
2022/07/07 02:52:48;;;;;;;15.50;11.07;;;;;;;;;;4991789;28;20181;-65
2022/07/07 02:55:14;;;;;;;20.53;12.07;;;;;;;;;;4991999;28;20058;-65
2022/07/07 02:57:40;;;;;;;15.30;9.73;;;;;;;;;;4991757;28;20038;-65
2022/07/07 03:00:07;;;;;;;18.03;10.27;;;;;;;;;;4991871;28;21132;-65
2022/07/07 03:02:33;;;;;;;22.27;12.00;;;;;;;;;;4991652;28;20061;-64
2022/07/07 03:04:59;;;;;;;11.43;7.60;;;;;;;;;;4991696;28;20046;-64
2022/07/07 03:07:25;;;;;;;16.80;10.40;;;;;;;;;;4991827;28;20054;-64
2022/07/07 03:09:51;;;;;;;15.23;8.83;;;;;;;;;;4992422;28;20354;-64
2022/07/07 03:12:17;;;;;;;13.60;9.80;;;;;;;;;;4991758;28;20053;-64
2022/07/07 03:14:43;;;;;;;19.07;11.97;;;;;;;;;;4991459;28;20053;-64
2022/07/07 03:17:09;;;;;;;12.23;6.77;;;;;;;;;;4992065;28;20046;-64
2022/07/07 03:19:35;;;;;;;11.87;6.43;;;;;;;;;;4991261;28;20760;-64
2022/07/07 03:22:02;;;;;;;16.23;7.30;;;;;;;;;;4991054;28;20054;-64
2022/07/07 03:24:29;;;;;;;14.03;5.63;;;;;;;;;;4991924;28;20436;-64
2022/07/07 03:26:56;;;;;;;13.93;8.50;;;;;;;;;;4990854;28;20097;-65
2022/07/07 03:29:22;;;;;;;14.77;5.63;;;;;;;;;;4991295;28;20457;-65
2022/07/07 03:31:48;;;;;;;20.30;7.50;;;;;;;;;;4991740;28;20461;-65
2022/07/07 03:34:14;;;;;;;18.07;6.23;;;;;;;;;;4991417;28;20052;-64
2022/07/07 03:36:40;;;;;;;26.50;7.47;;;;;;;;;;4990421;28;20050;-64
2022/07/07 03:39:06;;;;;;;19.83;6.73;;;;;;;;;;4991172;28;20046;-65
2022/07/07 03:41:32;;;;;;;19.60;7.80;;;;;;;;;;4991487;28;20050;-64
2022/07/07 03:43:58;;;;;;;18.13;7.40;;;;;;;;;;4990505;28;20043;-64
2022/07/07 03:46:24;;;;;;;18.77;6.67;;;;;;;;;;4990663;28;20042;-64
2022/07/07 03:48:50;;;;;;;21.43;7.33;;;;;;;;;;4990856;28;20042;-64
2022/07/07 03:51:16;;;;;;;15.77;6.03;;;;;;;;;;4991499;28;20042;-65
2022/07/07 03:53:42;;;;;;;15.13;5.30;;;;;;;;;;4990997;28;20046;-65
2022/07/07 03:56:08;;;;;;;14.53;5.40;;;;;;;;;;4991035;28;20100;-65
2022/07/07 03:58:34;;;;;;;23.60;7.30;;;;;;;;;;4990977;28;20042;-65
2022/07/07 04:01:00;;;;;;;19.00;6.03;;;;;;;;;;4990491;28;20493;-65
2022/07/07 04:03:26;;;;;;;15.90;6.17;;;;;;;;;;4990494;28;20417;-64
2022/07/07 04:05:52;;;;;;;14.93;5.93;;;;;;;;;;4990195;28;20670;-65
2022/07/07 04:08:18;;;;;;;15.57;5.90;;;;;;;;;;4990986;28;20057;-64
2022/07/07 04:10:44;;;;;;;20.33;4.93;;;;;;;;;;4991105;28;20070;-64
2022/07/07 04:13:11;;;;;;;20.53;6.33;;;;;;;;;;4990259;28;20097;-64
2022/07/07 04:15:37;;;;;;;12.33;4.50;;;;;;;;;;4988595;28;20054;-64
2022/07/07 04:18:03;;;;;;;16.43;4.97;;;;;;;;;;4990109;28;20081;-64
2022/07/07 04:20:30;;;;;;;14.33;5.53;;;;;;;;;;4990494;28;20050;-64
2022/07/07 04:22:56;;;;;;;16.03;3.13;;;;;;;;;;4989983;28;20058;-65
2022/07/07 04:25:22;;;;;;;11.60;3.00;;;;;;;;;;4990249;28;20054;-64
2022/07/07 04:27:48;;;;;;;13.90;3.40;;;;;;;;;;4989999;28;20065;-64
2022/07/07 04:30:14;;;;;;;13.23;2.53;;;;;;;;;;4990016;28;20049;-65
2022/07/07 04:32:40;;;;;;;14.57;3.00;;;;;;;;;;4989755;28;20053;-64
2022/07/07 04:35:07;;;;;;;14.73;2.70;;;;;;;;;;4989968;28;20050;-64
2022/07/07 04:37:33;;;;;;;19.03;3.00;;;;;;;;;;4989254;28;20042;-65
2022/07/07 04:39:59;;;;;;;17.13;3.10;;;;;;;;;;4988766;28;20054;-64
2022/07/07 04:42:25;;;;;;;11.80;2.40;;;;;;;;;;4989835;28;20133;-64
2022/07/07 04:44:51;;;;;;;12.57;2.60;;;;;;;;;;4989400;28;20050;-64
2022/07/07 04:47:17;;;;;;;6.97;1.73;;;;;;;;;;4990002;28;20047;-64
2022/07/07 04:49:43;;;;;;;8.70;1.67;;;;;;;;;;4988098;28;20046;-65
2022/07/07 04:52:09;;;;;;;14.83;2.10;;;;;;;;;;4989266;28;20046;-64
2022/07/07 04:54:35;;;;;;;13.10;2.20;;;;;;;;;;4988965;28;20452;-64
2022/07/07 04:57:01;;;;;;;10.70;1.90;;;;;;;;;;4989526;28;20042;-64
2022/07/07 04:59:27;;;;;;;11.00;1.73;;;;;;;;;;4989010;28;20064;-64
2022/07/07 05:01:53;;;;;;;12.83;2.07;;;;;;;;;;4989405;28;20108;-64
2022/07/07 05:04:19;;;;;;;11.50;1.87;;;;;;;;;;4988924;28;20046;-64
2022/07/07 05:06:46;;;;;;;12.37;1.97;;;;;;;;;;4989271;28;20046;-65
2022/07/07 05:09:12;;;;;;;9.20;1.93;;;;;;;;;;4983507;28;20386;-64
2022/07/07 05:11:38;;;;;;;7.83;1.27;;;;;;;;;;4989281;28;20129;-64
2022/07/07 05:14:04;;;;;;;8.53;1.67;;;;;;;;;;4989283;28;20046;-64
2022/07/07 05:16:30;;;;;;;8.60;1.63;;;;;;;;;;4989142;28;20383;-64
2022/07/07 05:18:56;;;;;;;12.10;1.70;;;;;;;;;;4989275;28;20081;-64
2022/07/07 05:21:22;;;;;;;8.73;1.60;;;;;;;;;;4989343;28;20173;-64
2022/07/07 05:23:48;;;;;;;11.57;1.63;;;;;;;;;;4988782;28;20175;-64
2022/07/07 05:26:15;;;;;;;11.13;1.97;;;;;;;;;;4988531;28;20054;-64
2022/07/07 05:28:44;;;;;;;4.77;1.43;;;;;;;;;;4989080;28;20287;-64
2022/07/07 05:31:10;;;;;;;11.00;1.77;;;;;;;;;;4989270;28;20048;-64
2022/07/07 05:33:36;;;;;;;10.70;1.70;;;;;;;;;;4988888;28;20456;-65
2022/07/07 05:36:03;;;;;;;8.23;1.60;;;;;;;;;;4988869;28;20046;-64
2022/07/07 05:38:30;;;;;;;8.00;1.20;;;;;;;;;;4988657;28;20069;-64
2022/07/07 05:40:56;;;;;;;8.50;1.60;;;;;;;;;;4988820;28;20117;-63
2022/07/07 05:43:22;;;;;;;10.50;1.67;;;;;;;;;;4988390;28;20038;-64
2022/07/07 05:45:48;;;;;;;10.37;1.47;;;;;;;;;;4988420;28;20046;-64
2022/07/07 05:48:14;;;;;;;11.37;1.83;;;;;;;;;;4988910;28;20512;-63
2022/07/07 05:50:40;;;;;;;11.73;1.67;;;;;;;;;;4988266;28;20535;-64
2022/07/07 05:53:06;;;;;;;13.07;2.83;;;;;;;;;;4988500;28;20148;-64
2022/07/07 05:55:32;;;;;;;10.30;2.13;;;;;;;;;;4987249;28;20052;-64
2022/07/07 05:57:58;;;;;;;13.50;2.37;;;;;;;;;;4987218;28;20429;-64
2022/07/07 06:00:25;;;;;;;9.53;1.80;;;;;;;;;;4990475;28;20372;-64
2022/07/07 06:02:51;;;;;;;12.47;2.03;;;;;;;;;;4992438;28;20050;-64
2022/07/07 06:05:18;;;;;;;9.13;1.60;;;;;;;;;;4992777;28;20046;-64
2022/07/07 06:07:44;;;;;;;9.27;1.80;;;;;;;;;;4992802;28;20046;-64
2022/07/07 06:10:11;;;;;;;12.30;2.03;;;;;;;;;;4992710;28;20476;-63
2022/07/07 06:12:40;;;;;;;7.00;1.40;;;;;;;;;;4991916;28;20146;-63
2022/07/07 06:15:07;;;;;;;8.30;1.80;;;;;;;;;;4992560;28;20523;-63
2022/07/07 06:17:33;;;;;;;9.23;1.60;;;;;;;;;;4992362;28;20050;-64
2022/07/07 06:19:59;;;;;;;15.13;2.67;;;;;;;;;;4992421;28;20159;-64
2022/07/07 06:22:26;;;;;;;13.40;1.97;;;;;;;;;;4992331;28;20091;-63
2022/07/07 06:24:52;;;;;;;8.80;1.77;;;;;;;;;;4991786;28;20055;-63
2022/07/07 06:27:18;;;;;;;11.20;2.17;;;;;;;;;;4992316;28;20425;-64
2022/07/07 06:29:45;;;;;;;13.13;2.37;;;;;;;;;;4992186;28;20038;-64
2022/07/07 06:32:11;;;;;;;11.37;2.10;;;;;;;;;;4991742;28;20129;-64
2022/07/07 06:34:37;;;;;;;11.33;1.73;;;;;;;;;;4991607;28;20046;-64
2022/07/07 06:37:03;;;;;;;10.37;2.70;;;;;;;;;;4992017;28;20054;-63
2022/07/07 06:39:29;;;;;;;7.53;1.73;;;;;;;;;;4991664;28;20520;-63
2022/07/07 06:41:56;;;;;;;14.53;1.87;;;;;;;;;;4992031;28;20069;-63
2022/07/07 06:44:22;;;;;;;10.30;1.60;;;;;;;;;;4992102;28;20057;-63
2022/07/07 06:46:48;;;;;;;6.10;1.40;;;;;;;;;;4992396;28;20062;-64
2022/07/07 06:49:14;;;;;;;9.90;2.50;;;;;;;;;;4990567;28;20394;-64
2022/07/07 06:51:40;;;;;;;10.90;2.37;;;;;;;;;;4991289;28;20045;-63
2022/07/07 06:54:06;;;;;;;9.73;2.10;;;;;;;;;;4990193;28;20042;-64
2022/07/07 06:56:32;;;;;;;6.30;1.30;;;;;;;;;;4991007;28;20042;-63
2022/07/07 06:58:58;;;;;;;6.20;1.03;;;;;;;;;;4991793;28;20552;-64
2022/07/07 07:01:24;;;;;;;8.03;1.80;;;;;;;;;;4991975;28;20054;-63
2022/07/07 07:03:50;;;;;;;5.23;1.10;;;;;;;;;;4996472;28;20046;-63
2022/07/07 07:06:16;;;;;;;8.70;1.60;;;;;;;;;;5007464;28;20074;-63
2022/07/07 07:08:42;;;;;;;10.10;1.40;;;;;;;;;;4984816;28;20043;-63
2022/07/07 07:11:08;;;;;;;8.80;2.13;;;;;;;;;;4985104;28;20483;-63
2022/07/07 07:13:34;;;;;;;8.07;1.87;;;;;;;;;;4976182;28;20038;-63
2022/07/07 07:16:00;;;;;;;8.27;1.20;;;;;;;;;;4985128;28;20050;-63
2022/07/07 07:18:27;;;;;;;5.77;1.00;;;;;;;;;;4990358;28;20061;-63
2022/07/07 07:20:53;;;;;;;6.73;1.13;;;;;;;;;;4984301;28;20411;-63
2022/07/07 07:23:19;;;;;;;8.50;1.23;;;;;;;;;;4991588;28;20069;-63
2022/07/07 07:25:45;;;;;;;4.80;1.00;;;;;;;;;;4982136;28;20054;-64
2022/07/07 07:28:12;;;;;;;6.17;1.40;;;;;;;;;;4990573;28;20039;-63
2022/07/07 07:30:38;;;;;;;6.03;1.00;;;;;;;;;;4990446;28;20046;-63
2022/07/07 07:33:04;;;;;;;10.97;1.40;;;;;;;;;;4990083;28;20054;-63
2022/07/07 07:35:30;;;;;;;10.10;1.53;;;;;;;;;;4987742;28;20050;-64
2022/07/07 07:37:56;;;;;;;6.50;1.30;;;;;;;;;;4976631;28;20054;-64
2022/07/07 07:40:22;;;;;;;7.33;0.90;;;;;;;;;;4984633;28;20068;-63
2022/07/07 07:42:48;;;;;;;6.30;1.03;;;;;;;;;;4984020;28;20041;-63
2022/07/07 07:45:14;;;;;;;4.90;1.03;;;;;;;;;;4984510;28;20058;-63
2022/07/07 07:47:45;;;;;;;5.50;1.00;;;;;;;;;;4986606;28;20038;-63
2022/07/07 07:50:12;;;;;;;4.07;1.10;;;;;;;;;;4984410;28;20050;-63
2022/07/07 07:52:39;;;;;;;4.53;1.00;;;;;;;;;;4980494;28;20042;-64
2022/07/07 07:55:06;;;;;;;5.37;0.73;;;;;;;;;;4986971;28;20050;-63
2022/07/07 07:57:32;;;;;;;5.37;0.90;;;;;;;;;;4987042;28;20515;-63
2022/07/07 07:59:58;;;;;;;4.07;1.10;;;;;;;;;;4985478;28;20054;-63
2022/07/07 08:02:24;;;;;;;7.10;1.87;;;;;;;;;;4987531;28;20085;-63
2022/07/07 08:04:53;;;;;;;6.10;1.03;;;;;;;;;;4985927;28;20101;-63
2022/07/07 08:07:19;;;;;;;5.13;1.20;;;;;;;;;;4987946;28;20413;-63
2022/07/07 08:09:45;;;;;;;6.07;1.03;;;;;;;;;;4985971;28;20041;-63
2022/07/07 08:12:11;;;;;;;4.73;1.10;;;;;;;;;;4987791;28;20084;-63
2022/07/07 08:14:37;;;;;;;4.90;1.00;;;;;;;;;;4980984;28;20053;-63
2022/07/07 08:17:03;;;;;;;6.97;1.50;;;;;;;;;;4984501;28;20515;-63
2022/07/07 08:19:30;;;;;;;5.87;1.00;;;;;;;;;;4989793;28;20121;-63
2022/07/07 08:21:56;;;;;;;6.80;1.47;;;;;;;;;;4986383;28;20057;-63
2022/07/07 08:24:22;;;;;;;4.50;1.43;;;;;;;;;;4990232;28;20109;-63
2022/07/07 08:26:48;;;;;;;7.17;1.27;;;;;;;;;;4986168;28;20112;-63
2022/07/07 08:29:14;;;;;;;3.70;0.97;;;;;;;;;;4988136;28;20563;-63
2022/07/07 08:31:40;;;;;;;3.10;1.00;;;;;;;;;;4984619;28;20058;-63
2022/07/07 08:34:07;;;;;;;4.20;0.97;;;;;;;;;;4989261;28;20074;-63
2022/07/07 08:36:33;;;;;;;8.57;1.40;;;;;;;;;;4983660;28;20085;-63
2022/07/07 08:38:59;;;;;;;6.53;1.60;;;;;;;;;;4979920;28;20038;-63
2022/07/07 08:41:26;;;;;;;4.33;0.93;;;;;;;;;;4985034;28;20721;-63
2022/07/07 08:43:52;;;;;;;5.37;1.13;;;;;;;;;;4987590;28;20053;-63
2022/07/07 08:46:18;;;;;;;4.97;0.93;;;;;;;;;;4980654;28;20109;-63
2022/07/07 08:48:44;;;;;;;5.83;1.27;;;;;;;;;;4977338;28;20110;-63
2022/07/07 08:51:10;;;;;;;7.40;0.97;;;;;;;;;;4983358;28;20426;-63
2022/07/07 08:53:37;;;;;;;12.87;2.40;;;;;;;;;;4980559;28;20338;-63
2022/07/07 08:56:09;;;;;;;3.63;1.10;;;;;;;;;;4987248;28;20042;-63
2022/07/07 08:58:36;;;;;;;5.30;0.95;;;;;;;;;;4996988;28;20042;-63
2022/07/07 09:01:06;;;;;;;3.97;0.73;;;;;;;;;;4985423;28;20416;-63
2022/07/07 09:03:32;;;;;;;3.93;0.73;;;;;;;;;;4987139;28;20051;-62
2022/07/07 09:05:58;;;;;;;4.43;0.83;;;;;;;;;;4987408;28;20527;-63
2022/07/07 09:08:25;;;;;;;4.90;0.87;;;;;;;;;;4987811;28;20035;-63
2022/07/07 09:10:52;;;;;;;6.37;0.70;;;;;;;;;;4988456;28;20061;-63
2022/07/07 09:13:25;;;;;;;3.17;0.73;;;;;;;;;;4987414;28;20137;-63
2022/07/07 09:15:52;;;;;;;5.53;1.10;;;;;;;;;;4988723;28;20046;-63
2022/07/07 09:18:37;;;;;;;5.47;1.00;;;;;;;;;;4987130;28;20540;-63
2022/07/07 09:21:05;;;;;;;5.40;1.20;;;;;;;;;;4988796;28;20536;-63
2022/07/07 09:23:31;;;;;;;7.67;1.53;;;;;;;;;;4987368;28;20122;-63
2022/07/07 09:25:58;;;;;;;7.63;1.57;;;;;;;;;;4988394;28;20516;-63
2022/07/07 09:28:25;;;;;;;6.57;1.37;;;;;;;;;;4987905;28;20085;-63
2022/07/07 09:30:51;;;;;;;5.07;1.10;;;;;;;;;;4988449;28;20501;-63
2022/07/07 09:33:21;;;;;;;4.93;1.20;;;;;;;;;;4987792;28;20508;-63
2022/07/07 09:38:33;;;;;;;6.03;1.37;;;;;;;;;;4987983;28;20046;-63
2022/07/07 09:41:05;;;;;;;7.53;1.30;;;;;;;;;;4988306;28;20500;-63
2022/07/07 09:43:38;;;;;;;6.35;1.60;;;;;;;;;;4986819;28;20038;-63
2022/07/07 09:46:04;;;;;;;;;;;;;;;;;;4988534;28;20062;-63
2022/07/07 09:48:30;;;;;;;10.30;1.73;;;;;;;;;;4987371;28;20399;-63
2022/07/07 09:51:16;;;;;;;6.57;1.73;;;;;;;;;;4988253;28;20576;-62
2022/07/07 09:53:55;;;;;;;6.13;1.53;;;;;;;;;;4987979;28;20120;-63
2022/07/07 09:56:41;;;;;;;5.07;1.40;;;;;;;;;;4988018;28;20061;-63
2022/07/07 09:59:09;;;;;;;4.07;1.20;;;;;;;;;;4987599;28;20048;-63
2022/07/07 10:01:36;;;;;;;9.20;1.77;;;;;;;;;;4976214;28;20413;-63
2022/07/07 10:04:03;;;;;;;8.40;1.33;;;;;;;;;;4969146;28;20043;-63
2022/07/07 10:06:31;;;;;;;4.43;1.40;;;;;;;;;;4990220;28;20100;-63
2022/07/07 10:08:59;;;;;;;8.87;1.30;;;;;;;;;;5007879;28;20052;-63
2022/07/07 10:11:36;;;;;;;6.70;1.37;;;;;;;;;;5005135;28;20046;-63
2022/07/07 10:14:15;;;;;;;6.47;1.20;;;;;;;;;;4987717;28;20050;-62
2022/07/07 10:16:43;;;;;;;6.30;1.33;;;;;;;;;;4987871;28;20093;-63
2022/07/07 10:19:10;;;;;;;5.77;1.47;;;;;;;;;;4986794;28;20077;-63
2022/07/07 10:21:36;;;;;;;5.97;1.50;;;;;;;;;;4987749;28;20535;-63
2022/07/07 10:24:02;;;;;;;4.17;0.93;;;;;;;;;;4986534;28;20061;-63
2022/07/07 10:26:55;;;;;;;5.30;1.57;;;;;;;;;;4987783;28;20066;-63
2022/07/07 10:29:38;;;;;;;4.37;1.67;;;;;;;;;;4984123;28;20129;-63
2022/07/07 10:32:05;;;;;;;6.38;1.23;;;;;;;;;;4987466;28;20054;-63
2022/07/07 10:34:33;;;;;;;3.57;1.90;;;;;;;;;;4986505;28;20046;-63
2022/07/07 10:37:02;;;;;;;4.77;1.50;;;;;;;;;;4984493;28;20066;-63
2022/07/07 10:39:33;;;;;;;6.57;1.30;;;;;;;;;;4985658;28;20050;-63
2022/07/07 10:42:05;;;;;;;2.93;1.00;;;;;;;;;;4987901;28;20133;-62
2022/07/07 10:44:32;;;;;;;4.70;1.00;;;;;;;;;;4984259;28;20061;-62
2022/07/07 10:47:01;;;;;;;4.37;1.30;;;;;;;;;;4990432;28;20504;-63
2022/07/07 10:49:41;;;;;;;7.70;1.30;;;;;;;;;;4990508;28;20093;-63
2022/07/07 10:52:11;;;;;;;7.07;1.87;;;;;;;;;;4990376;28;20054;-62
2022/07/07 10:54:43;;;;;;;3.47;1.40;;;;;;;;;;4991242;28;20038;-63
2022/07/07 10:57:09;;;;;;;5.20;1.20;;;;;;;;;;4990410;28;20105;-63
2022/07/07 10:59:56;;;;;;;3.83;1.10;;;;;;;;;;4990840;28;20057;-63
2022/07/07 11:02:34;;;;;;;6.40;1.30;;;;;;;;;;4971669;28;20059;-63
2022/07/07 11:05:01;;;;;;;4.13;1.60;;;;;;;;;;4977716;28;20141;-62
2022/07/07 11:07:28;;;;;;;6.70;1.60;;;;;;;;;;4991305;28;20088;-62
2022/07/07 11:10:00;;;;;;;8.03;2.00;;;;;;;;;;4990635;28;20409;-62
2022/07/07 11:12:43;;;;;;;5.28;1.30;;;;;;;;;;4989847;28;20152;-63
2022/07/07 11:15:15;;;;;;;4.60;1.08;;;;;;;;;;4976957;28;20558;-62
2022/07/07 11:17:42;;;;;;;7.10;1.37;;;;;;;;;;4990890;28;20081;-63
2022/07/07 11:20:08;;;;;;;5.83;1.67;;;;;;;;;;4988462;28;20134;-63
2022/07/07 11:22:44;;;;;;;5.87;1.50;;;;;;;;;;4985090;28;21057;-61
2022/07/07 11:25:10;;;;;;;9.80;2.53;;;;;;;;;;5000198;28;20062;-62
2022/07/07 11:27:37;;;;;;;10.00;2.47;;;;;;;;;;4994481;28;20062;-62
2022/07/07 11:30:04;;;;;;;8.00;2.60;;;;;;;;;;4986209;28;20049;-62
2022/07/07 11:32:37;;;;;;;9.90;1.80;;;;;;;;;;4987107;28;20072;-62
2022/07/07 11:35:07;;;;;;;14.40;2.45;;;;;;;;;;4987467;28;20046;-62
2022/07/07 11:37:34;;;;;;;8.87;2.10;;;;;;;;;;4985947;28;20050;-62
2022/07/07 11:40:00;;;;;;;8.27;1.73;;;;;;;;;;4982008;28;20134;-62
2022/07/07 11:42:27;;;;;;;10.67;2.70;;;;;;;;;;4984262;28;20051;-62
2022/07/07 11:44:53;;;;;;;8.07;1.80;;;;;;;;;;4990413;28;20050;-61
2022/07/07 11:47:19;;;;;;;10.97;2.20;;;;;;;;;;4987682;28;20096;-62
2022/07/07 11:49:45;;;;;;;11.27;3.03;;;;;;;;;;4990681;28;20043;-61
2022/07/07 11:52:15;;;;;;;10.57;2.30;;;;;;;;;;4982917;28;20125;-61
2022/07/07 11:54:47;;;;;;;8.47;2.03;;;;;;;;;;4987161;28;20061;-61
2022/07/07 11:57:25;;;;;;;10.90;2.50;;;;;;;;;;4994618;28;20421;-61
2022/07/07 11:59:51;;;;;;;14.40;2.80;;;;;;;;;;4988261;28;20097;-62
2022/07/07 12:02:17;;;;;;;14.83;3.03;;;;;;;;;;4990711;28;20418;-61
2022/07/07 12:04:43;;;;;;;10.33;2.07;;;;;;;;;;4987521;28;20104;-61
2022/07/07 12:07:10;;;;;;;12.23;2.40;;;;;;;;;;4989901;28;20515;-61
2022/07/07 12:09:36;;;;;;;10.97;2.40;;;;;;;;;;4986276;28;20050;-62
2022/07/07 12:12:02;;;;;;;11.77;2.70;;;;;;;;;;4980669;28;20089;-61
2022/07/07 12:14:29;;;;;;;12.33;2.53;;;;;;;;;;4985791;28;20145;-61
2022/07/07 12:16:56;;;;;;;11.70;2.77;;;;;;;;;;4989391;28;20161;-61
2022/07/07 12:19:22;;;;;;;7.83;2.50;;;;;;;;;;4996702;28;20054;-61
2022/07/07 12:21:49;;;;;;;11.20;2.10;;;;;;;;;;4987271;28;20504;-62
2022/07/07 12:24:17;;;;;;;11.23;2.57;;;;;;;;;;4987984;28;20062;-61
2022/07/07 12:26:47;;;;;;;12.10;2.07;;;;;;;;;;4988144;28;20580;-61
2022/07/07 12:29:13;;;;;;;9.23;2.33;;;;;;;;;;4976170;28;20050;-62
2022/07/07 12:31:39;;;;;;;12.43;2.43;;;;;;;;;;4989421;28;20130;-61
2022/07/07 12:34:15;;;;;;;11.20;2.30;;;;;;;;;;4989200;28;20430;-62
2022/07/07 12:36:42;;;;;;;9.93;2.27;;;;;;;;;;4989599;28;20065;-61
2022/07/07 12:39:08;;;;;;;11.90;2.20;;;;;;;;;;4989126;28;20056;-61
2022/07/07 12:41:36;;;;;;;13.70;2.47;;;;;;;;;;4990246;28;20089;-61
2022/07/07 12:44:15;;;;;;;7.73;1.90;;;;;;;;;;4989156;28;20485;-61
2022/07/07 12:46:42;;;;;;;9.43;2.30;;;;;;;;;;4982144;28;20501;-62
2022/07/07 12:49:08;;;;;;;11.07;2.70;;;;;;;;;;4989472;28;20050;-62
2022/07/07 12:51:34;;;;;;;8.30;1.93;;;;;;;;;;4988454;28;20038;-61
2022/07/07 12:54:01;;;;;;;11.13;2.20;;;;;;;;;;4989944;28;20088;-62
2022/07/07 12:56:32;;;;;;;7.47;2.00;;;;;;;;;;4988973;28;20097;-62
2022/07/07 12:58:58;;;;;;;9.03;2.50;;;;;;;;;;4989445;28;20125;-62
2022/07/07 13:01:26;;;;;;;11.77;2.27;;;;;;;;;;4988098;28;20451;-62
2022/07/07 13:03:54;;;;;;;8.70;2.03;;;;;;;;;;4988729;28;20352;-62
2022/07/07 13:06:21;;;;;;;8.23;1.90;;;;;;;;;;4986252;28;20050;-62
2022/07/07 13:08:48;;;;;;;7.37;1.73;;;;;;;;;;4971319;28;20520;-62
2022/07/07 13:11:14;;;;;;;11.03;2.10;;;;;;;;;;4984617;28;20056;-62
2022/07/07 13:13:40;;;;;;;13.47;2.40;;;;;;;;;;4988669;28;20444;-62
2022/07/07 13:16:08;;;;;;;9.70;2.47;;;;;;;;;;4986479;28;20490;-62
2022/07/07 13:18:34;;;;;;;13.77;2.67;;;;;;;;;;4987139;28;20061;-62
2022/07/07 13:21:01;;;;;;;10.60;2.67;;;;;;;;;;4985823;28;20093;-62
2022/07/07 13:23:28;;;;;;;13.97;2.17;;;;;;;;;;4972628;28;20057;-62
2022/07/07 13:25:55;;;;;;;10.50;2.50;;;;;;;;;;4966695;28;20141;-62
2022/07/07 13:28:21;;;;;;;11.90;1.97;;;;;;;;;;4967349;28;20600;-62
2022/07/07 13:30:47;;;;;;;9.23;2.20;;;;;;;;;;4968399;28;20412;-62
2022/07/07 13:33:13;;;;;;;10.13;2.07;;;;;;;;;;4969128;28;20047;-62
2022/07/07 13:35:39;;;;;;;11.20;2.13;;;;;;;;;;4949401;28;20129;-62
2022/07/07 13:38:05;;;;;;;10.13;2.50;;;;;;;;;;4968877;28;20082;-63
2022/07/07 13:40:31;;;;;;;8.43;2.13;;;;;;;;;;4967748;28;20053;-62
2022/07/07 13:42:57;;;;;;;13.23;2.40;;;;;;;;;;4969348;28;20066;-62
2022/07/07 13:45:23;;;;;;;11.23;2.60;;;;;;;;;;4966274;28;20047;-62
2022/07/07 13:47:49;;;;;;;10.27;2.63;;;;;;;;;;4968181;28;20042;-63
2022/07/07 13:50:15;;;;;;;10.77;2.80;;;;;;;;;;4968716;28;20130;-62
2022/07/07 13:52:41;;;;;;;9.37;2.63;;;;;;;;;;4969380;28;20086;-62
2022/07/07 13:55:07;;;;;;;11.40;2.57;;;;;;;;;;4970954;28;20065;-62
2022/07/07 13:57:33;;;;;;;9.30;2.33;;;;;;;;;;4956937;28;20121;-62
2022/07/07 14:00:00;;;;;;;10.50;1.70;;;;;;;;;;4963743;28;20512;-62
2022/07/07 14:02:26;;;;;;;8.50;2.13;;;;;;;;;;4971200;28;20442;-62
2022/07/07 14:04:53;;;;;;;10.00;2.20;;;;;;;;;;4964061;28;20169;-63
2022/07/07 14:07:19;;;;;;;7.57;1.97;;;;;;;;;;4963663;28;20057;-62
2022/07/07 14:09:45;;;;;;;8.10;1.80;;;;;;;;;;4963721;28;20050;-63
2022/07/07 14:12:11;;;;;;;12.90;2.20;;;;;;;;;;4963361;28;20075;-63
2022/07/07 14:14:37;;;;;;;8.37;1.87;;;;;;;;;;4944368;28;20062;-63
2022/07/07 14:17:04;;;;;;;11.03;1.90;;;;;;;;;;4963709;28;20045;-63
2022/07/07 14:19:30;;;;;;;11.97;2.37;;;;;;;;;;4967987;28;20046;-62
2022/07/07 14:21:56;;;;;;;10.33;2.67;;;;;;;;;;4972660;28;20039;-62
2022/07/07 14:24:22;;;;;;;10.03;2.03;;;;;;;;;;4988215;28;20133;-63
2022/07/07 14:26:48;;;;;;;10.13;2.17;;;;;;;;;;4973149;28;20134;-63
2022/07/07 14:29:14;;;;;;;5.70;1.97;;;;;;;;;;4971887;28;20089;-63
2022/07/07 14:31:41;;;;;;;8.63;2.20;;;;;;;;;;4971909;28;20488;-63
2022/07/07 14:34:07;;;;;;;7.83;2.07;;;;;;;;;;4972946;28;20042;-62
2022/07/07 14:36:33;;;;;;;6.10;1.90;;;;;;;;;;4971814;28;20045;-63